Maraa, Brazil
Current Conditions -  °F | °C
As of 9:00 PM on Monday 20 Oct 2014 (Local Time) from SKLT Reporting Station
Rain Showers Rain Showers  
Wind Chill: 75°   Ceiling: 1700
Heat Index: 75°   Visibility: 5mi
Dew Point: 73°   Wind: 5mph
Humidity: 94%   Direction: 330°NNW
Pressure: 29.86"   Gusts: NA
Location:  1.86°S, 65.58°W
Report Text: SKLT 210100Z 33004KT 8000 VCSH SCT009 BKN017 24/23 A2986 RETS
Loading
Personal Weather Stations






























Interactive Weather Map
Tropical Storm Tracking
New forecast layout! Learn more

10-Day Weather Forecast

Advertisements
Track Severe Weather on mobile